Time;durP1;ratioP1;P1;durP2;ratioP2;P2;SDS_P1;SDS_P2;PMS_P1;PMS_P2;Temp;Humidity;BMP_temperature;BMP_pressure;BME280_temperature;BME280_humidity;BME280_pressure;Samples;Min_cycle;Max_cycle;Signal;HPM_P1;HPM_P2
2022/07/31 00:00:08;;;;;;;2.43;2.00;;;16.00;61.60;;;;;;5031853;28;20964;-52
2022/07/31 00:02:34;;;;;;;3.43;2.40;;;15.90;69.90;;;;;;5029004;28;20466;-52
2022/07/31 00:05:03;;;;;;;5.50;2.50;;;15.90;58.30;;;;;;5028586;28;20556;-52
2022/07/31 00:07:30;;;;;;;2.67;2.40;;;15.80;63.70;;;;;;5030958;28;20494;-53
2022/07/31 00:09:56;;;;;;;2.60;2.40;;;15.60;63.60;;;;;;5028095;28;21022;-52
2022/07/31 00:12:23;;;;;;;4.00;2.17;;;15.60;47.80;;;;;;5027821;28;20458;-53
2022/07/31 00:14:50;;;;;;;2.97;1.90;;;15.60;49.70;;;;;;5029957;28;20491;-52
2022/07/31 00:17:16;;;;;;;7.37;1.77;;;15.70;51.20;;;;;;5025959;28;20493;-53
2022/07/31 00:19:43;;;;;;;1.90;1.80;;;15.70;49.40;;;;;;5029228;28;20495;-53
2022/07/31 00:22:12;;;;;;;2.80;2.00;;;15.60;41.60;;;;;;5028809;28;20491;-53
2022/07/31 00:24:38;;;;;;;2.30;2.13;;;15.60;48.30;;;;;;5032874;28;20514;-53
2022/07/31 00:27:05;;;;;;;3.10;2.40;;;15.60;50.00;;;;;;5027741;28;20969;-54
2022/07/31 00:29:32;;;;;;;4.53;2.50;;;15.50;52.90;;;;;;5034694;28;20493;-52
2022/07/31 00:31:58;;;;;;;2.90;1.73;;;15.50;46.20;;;;;;5030607;28;20628;-52
2022/07/31 00:34:25;;;;;;;2.40;2.17;;;15.50;40.80;;;;;;5034156;28;20596;-52
2022/07/31 00:36:51;;;;;;;2.67;2.47;;;15.50;45.20;;;;;;5031829;28;20486;-52
2022/07/31 00:39:19;;;;;;;2.30;2.00;;;15.40;46.20;;;;;;5034665;28;20842;-52
2022/07/31 00:41:48;;;;;;;2.27;2.03;;;15.40;44.40;;;;;;5029724;28;20499;-53
2022/07/31 00:44:14;;;;;;;3.00;2.17;;;15.30;43.10;;;;;;5033331;28;20459;-53
2022/07/31 00:46:41;;;;;;;2.20;2.10;;;15.30;41.00;;;;;;5032056;28;20978;-52
2022/07/31 00:49:09;;;;;;;4.17;2.10;;;15.20;40.80;;;;;;5032859;28;20458;-52
2022/07/31 00:51:36;;;;;;;2.83;2.60;;;15.10;37.80;;;;;;5028912;28;20463;-53
2022/07/31 00:54:03;;;;;;;6.40;2.30;;;15.10;35.40;;;;;;5033967;28;20513;-53
2022/07/31 00:56:31;;;;;;;9.13;2.10;;;15.00;35.80;;;;;;5033485;28;20486;-52
2022/07/31 00:58:58;;;;;;;2.20;2.10;;;15.10;23.90;;;;;;5025087;28;20486;-53
2022/07/31 01:01:24;;;;;;;2.10;2.00;;;15.10;31.10;;;;;;5029221;28;20502;-52
2022/07/31 01:03:52;;;;;;;3.83;2.03;;;15.00;32.60;;;;;;5028419;28;21011;-52
2022/07/31 01:06:18;;;;;;;1.80;1.70;;;15.00;22.00;;;;;;5033246;28;20917;-52
2022/07/31 01:08:45;;;;;;;2.03;1.93;;;15.00;23.90;;;;;;5034015;28;20463;-52
2022/07/31 01:11:16;;;;;;;2.33;2.20;;;15.00;24.80;;;;;;5032103;28;20497;-52
2022/07/31 01:13:50;;;;;;;3.70;2.00;;;15.00;78.50;;;;;;5031992;28;21007;-53
2022/07/31 01:16:18;;;;;;;9.60;2.50;;;15.00;20.60;;;;;;5029462;28;20514;-52
2022/07/31 01:18:46;;;;;;;5.00;2.37;;;14.90;23.10;;;;;;5025150;28;20514;-53
2022/07/31 01:21:17;;;;;;;2.47;2.27;;;14.90;22.90;;;;;;5027688;28;20498;-52
2022/07/31 01:24:07;;;;;;;2.13;2.03;;;14.90;20.00;;;;;;5026707;28;20486;-52
2022/07/31 01:26:43;;;;;;;2.63;2.43;;;14.90;99.90;;;;;;5031726;28;21063;-52
2022/07/31 01:29:20;;;;;;;2.50;1.80;;;14.80;99.90;;;;;;5029371;28;20592;-52
2022/07/31 01:31:52;;;;;;;2.30;2.20;;;14.80;83.60;;;;;;5024278;28;20555;-54
2022/07/31 01:34:25;;;;;;;2.33;2.20;;;14.80;20.90;;;;;;5029884;28;20473;-52
2022/07/31 01:37:16;;;;;;;4.20;1.93;;;14.70;20.10;;;;;;5022000;28;20451;-53
2022/07/31 01:39:52;;;;;;;2.00;1.90;;;14.70;99.90;;;;;;5026342;28;20458;-53
2022/07/31 01:42:20;;;;;;;3.67;2.70;;;14.70;95.80;;;;;;5032495;28;20450;-52
2022/07/31 01:44:55;;;;;;;2.13;2.03;;;14.60;99.90;;;;;;5029381;28;20487;-52
2022/07/31 01:47:23;;;;;;;3.00;2.07;;;14.60;99.90;;;;;;5029974;28;20964;-52
2022/07/31 01:49:53;;;;;;;5.50;2.30;;;14.50;99.90;;;;;;5032464;28;20459;-52
2022/07/31 01:52:21;;;;;;;3.47;2.10;;;14.50;99.90;;;;;;5030752;28;20455;-53
2022/07/31 01:54:49;;;;;;;2.63;2.00;;;14.50;99.90;;;;;;5032050;28;20489;-52
2022/07/31 01:57:18;;;;;;;15.83;1.90;;;14.40;99.90;;;;;;5026821;28;20458;-52
2022/07/31 01:59:47;;;;;;;3.53;2.20;;;14.40;99.90;;;;;;5028715;28;20458;-53
2022/07/31 02:02:16;;;;;;;2.37;2.00;;;14.30;99.90;;;;;;5027505;28;20795;-52
2022/07/31 02:04:43;;;;;;;4.03;2.60;;;14.30;99.90;;;;;;5032166;28;20463;-52
2022/07/31 02:07:13;;;;;;;4.00;2.40;;;14.20;99.90;;;;;;5031309;28;20974;-52
2022/07/31 02:09:43;;;;;;;3.00;2.37;;;14.30;99.90;;;;;;5033898;28;20508;-52
2022/07/31 02:12:13;;;;;;;1.93;1.73;;;14.30;99.90;;;;;;5029039;28;20504;-53
2022/07/31 02:14:41;;;;;;;2.50;2.33;;;14.20;99.90;;;;;;5029206;28;20483;-52
2022/07/31 02:17:08;;;;;;;3.13;2.10;;;14.30;99.90;;;;;;5029645;28;20457;-52
2022/07/31 02:19:39;;;;;;;4.03;2.60;;;14.20;99.90;;;;;;5031588;28;20955;-52
2022/07/31 02:22:07;;;;;;;3.20;2.43;;;14.10;99.90;;;;;;5033113;28;20446;-52
2022/07/31 02:24:34;;;;;;;2.47;2.10;;;14.20;99.90;;;;;;5029004;28;20509;-53
2022/07/31 02:27:01;;;;;;;2.10;2.00;;;14.10;99.90;;;;;;5027217;28;20482;-53
2022/07/31 02:29:30;;;;;;;3.83;2.30;;;14.10;99.90;;;;;;5031621;28;20462;-53
2022/07/31 02:31:59;;;;;;;2.47;2.27;;;14.00;99.90;;;;;;5029376;28;20605;-52
2022/07/31 02:34:27;;;;;;;2.50;2.30;;;14.00;99.90;;;;;;5031916;28;20486;-52
2022/07/31 02:36:55;;;;;;;3.27;2.83;;;13.90;99.90;;;;;;5031144;28;20455;-52
2022/07/31 02:39:24;;;;;;;2.97;2.37;;;13.80;99.90;;;;;;5032442;28;20498;-52
2022/07/31 02:41:51;;;;;;;2.90;2.70;;;13.90;99.90;;;;;;5028722;28;20493;-52
2022/07/31 02:44:20;;;;;;;3.00;2.47;;;13.90;99.90;;;;;;5029111;28;20463;-52
2022/07/31 02:46:47;;;;;;;2.60;2.40;;;13.90;99.90;;;;;;5029341;28;20525;-52
2022/07/31 02:49:15;;;;;;;3.03;2.57;;;13.90;99.90;;;;;;5033082;28;20504;-53
2022/07/31 02:51:42;;;;;;;3.17;2.87;;;13.90;99.90;;;;;;5029367;28;20471;-53
2022/07/31 02:54:10;;;;;;;2.60;2.30;;;13.90;99.90;;;;;;5031650;28;20490;-52
2022/07/31 02:56:37;;;;;;;2.40;2.20;;;13.80;99.90;;;;;;5027625;28;20517;-52
2022/07/31 02:59:04;;;;;;;2.97;2.77;;;13.80;99.90;;;;;;5031869;28;20455;-52
2022/07/31 03:01:34;;;;;;;2.90;2.70;;;13.70;99.90;;;;;;5030035;28;20471;-52
2022/07/31 03:04:01;;;;;;;2.30;2.10;;;13.70;99.90;;;;;;5031874;28;20462;-52
2022/07/31 03:06:27;;;;;;;5.73;2.70;;;13.70;99.90;;;;;;5027493;28;21077;-52
2022/07/31 03:08:54;;;;;;;4.17;2.80;;;13.70;99.90;;;;;;5030406;28;20458;-52
2022/07/31 03:11:22;;;;;;;2.40;2.30;;;13.70;99.90;;;;;;5030019;28;20455;-53
2022/07/31 03:13:49;;;;;;;7.17;2.30;;;13.60;99.90;;;;;;5025838;28;20455;-52
2022/07/31 03:16:16;;;;;;;3.00;1.97;;;13.60;99.90;;;;;;5026282;28;20518;-53
2022/07/31 03:18:44;;;;;;;2.40;2.20;;;13.50;99.90;;;;;;5026861;28;20462;-52
2022/07/31 03:21:11;;;;;;;2.60;2.40;;;13.50;99.90;;;;;;5029047;28;20458;-52
2022/07/31 03:23:38;;;;;;;7.93;2.77;;;13.50;99.90;;;;;;5027691;28;20897;-52
2022/07/31 03:26:06;;;;;;;2.67;2.47;;;13.40;99.90;;;;;;5030203;28;20486;-52
2022/07/31 03:28:35;;;;;;;3.13;2.90;;;13.40;99.90;;;;;;5028124;28;20462;-54
2022/07/31 03:31:02;;;;;;;4.23;2.83;;;13.40;99.90;;;;;;5031164;28;20458;-52
2022/07/31 03:33:28;;;;;;;2.50;2.30;;;13.40;99.90;;;;;;5024140;28;20458;-53
2022/07/31 03:35:56;;;;;;;2.30;2.10;;;13.40;99.90;;;;;;5030941;28;20470;-52
2022/07/31 03:38:23;;;;;;;3.43;2.40;;;13.40;99.90;;;;;;5028669;28;20520;-52
2022/07/31 03:40:49;;;;;;;10.87;2.73;;;13.40;99.90;;;;;;5021923;28;20459;-52
2022/07/31 03:43:18;;;;;;;6.43;2.20;;;13.30;99.90;;;;;;5028362;28;20513;-52
2022/07/31 03:45:47;;;;;;;2.70;2.60;;;13.30;99.90;;;;;;5028189;28;20482;-51
2022/07/31 03:48:14;;;;;;;3.23;2.90;;;13.30;99.90;;;;;;5026004;28;20462;-49
2022/07/31 03:50:41;;;;;;;3.47;3.00;;;13.20;99.90;;;;;;5024485;28;20492;-51
2022/07/31 03:53:09;;;;;;;6.73;3.10;;;13.30;99.90;;;;;;5029598;28;20458;-51
2022/07/31 03:55:38;;;;;;;3.03;2.67;;;13.30;99.90;;;;;;5022045;28;20474;-51
2022/07/31 03:58:05;;;;;;;4.83;2.67;;;13.30;99.90;;;;;;5026398;28;20513;-51
2022/07/31 04:00:31;;;;;;;3.03;2.77;;;13.30;99.90;;;;;;5028463;28;20455;-51
2022/07/31 04:03:05;;;;;;;2.50;2.30;;;13.30;99.90;;;;;;5028585;28;20824;-51
2022/07/31 04:05:32;;;;;;;2.90;2.70;;;13.30;99.90;;;;;;5030403;28;20549;-51
2022/07/31 04:07:59;;;;;;;5.07;2.83;;;13.40;99.90;;;;;;5027905;28;20959;-52
2022/07/31 04:10:26;;;;;;;2.97;2.67;;;13.40;99.90;;;;;;5029567;28;20470;-51
2022/07/31 04:12:52;;;;;;;5.80;3.60;;;13.40;99.90;;;;;;5027523;28;20853;-51
2022/07/31 04:15:19;;;;;;;3.50;3.20;;;13.40;99.90;;;;;;5030359;28;20479;-50
2022/07/31 04:17:46;;;;;;;3.90;2.80;;;13.50;99.90;;;;;;5027012;28;20504;-52
2022/07/31 04:20:14;;;;;;;2.87;2.67;;;13.50;99.90;;;;;;5027780;28;20462;-51
2022/07/31 04:22:40;;;;;;;3.63;2.77;;;13.50;99.90;;;;;;5028888;28;20459;-52
2022/07/31 04:25:08;;;;;;;3.50;2.97;;;13.60;99.90;;;;;;5030405;28;20487;-52
2022/07/31 04:27:35;;;;;;;2.40;2.20;;;13.60;99.90;;;;;;5028649;28;22010;-51
2022/07/31 04:30:02;;;;;;;3.07;2.87;;;13.60;99.90;;;;;;5025635;28;21585;-51
2022/07/31 04:32:28;;;;;;;3.58;2.08;;;13.70;99.90;;;;;;5025073;28;20449;-53
2022/07/31 04:34:55;;;;;;;4.50;2.63;;;13.80;99.90;;;;;;5027046;28;20223;-52
2022/07/31 04:37:23;;;;;;;3.10;2.47;;;13.80;99.90;;;;;;5028213;28;20454;-51
2022/07/31 04:39:49;;;;;;;7.30;3.20;;;13.90;99.90;;;;;;5030990;28;20450;-52
2022/07/31 04:42:16;;;;;;;3.17;2.87;;;13.90;99.90;;;;;;5029510;28;20462;-51
2022/07/31 04:44:43;;;;;;;3.03;2.67;;;13.90;99.90;;;;;;5029132;28;20498;-52
2022/07/31 04:47:10;;;;;;;10.20;2.77;;;14.00;99.90;;;;;;5022389;28;20828;-51
2022/07/31 04:49:37;;;;;;;7.33;2.40;;;14.10;99.90;;;;;;5028320;28;20751;-52
2022/07/31 04:52:05;;;;;;;5.80;3.23;;;14.10;99.90;;;;;;5025412;28;20474;-51
2022/07/31 04:54:33;;;;;;;3.53;3.00;;;14.20;99.90;;;;;;5028892;28;20486;-51
2022/07/31 04:56:59;;;;;;;3.10;2.77;;;14.30;99.90;;;;;;5029042;28;20470;-51
2022/07/31 04:59:26;;;;;;;4.30;2.50;;;14.40;99.90;;;;;;5024862;28;20467;-51
2022/07/31 05:01:53;;;;;;;4.33;3.10;;;14.50;99.90;;;;;;5028795;28;20459;-52
2022/07/31 05:04:19;;;;;;;2.43;2.20;;;14.50;99.90;;;;;;5028584;28;20546;-51
2022/07/31 05:06:47;;;;;;;3.20;2.60;;;14.60;99.90;;;;;;5029515;28;20482;-51
2022/07/31 05:09:16;;;;;;;7.30;2.80;;;14.60;99.90;;;;;;5028315;28;20524;-51
2022/07/31 05:11:44;;;;;;;8.23;2.60;;;14.70;99.90;;;;;;5030068;28;20458;-52
2022/07/31 05:14:13;;;;;;;3.07;2.87;;;14.80;99.90;;;;;;5032502;28;20454;-51
2022/07/31 05:16:39;;;;;;;3.80;3.47;;;15.00;99.90;;;;;;5031603;28;20455;-51
2022/07/31 05:19:07;;;;;;;3.23;2.80;;;15.00;99.90;;;;;;5032948;28;20462;-51
2022/07/31 05:21:33;;;;;;;3.33;3.13;;;15.10;99.90;;;;;;5026350;28;20891;-51
2022/07/31 05:24:01;;;;;;;4.97;3.10;;;15.30;99.90;;;;;;5031068;28;20462;-52
2022/07/31 05:26:29;;;;;;;8.03;2.60;;;15.40;99.90;;;;;;5026341;28;20577;-52
2022/07/31 05:28:58;;;;;;;5.63;2.70;;;15.40;99.90;;;;;;5031109;28;20470;-51
2022/07/31 05:31:26;;;;;;;2.53;2.33;;;15.50;99.90;;;;;;5027917;28;21026;-50
2022/07/31 05:33:53;;;;;;;3.50;3.20;;;15.60;99.90;;;;;;5032173;28;20461;-52
2022/07/31 05:36:20;;;;;;;4.17;2.97;;;15.70;99.90;;;;;;5032373;28;20475;-51
2022/07/31 05:38:47;;;;;;;2.70;2.47;;;15.80;99.90;;;;;;5031541;28;20467;-51
2022/07/31 05:41:14;;;;;;;2.57;2.37;;;15.90;99.90;;;;;;5029872;28;20882;-51
2022/07/31 05:43:40;;;;;;;2.63;2.20;;;16.00;99.90;;;;;;5027927;28;20562;-51
2022/07/31 05:46:09;;;;;;;4.57;2.57;;;16.10;99.90;;;;;;5031409;28;20513;-50
2022/07/31 05:48:35;;;;;;;2.63;2.53;;;16.30;99.90;;;;;;5024860;28;20447;-52
2022/07/31 05:51:02;;;;;;;2.83;2.20;;;16.50;99.90;;;;;;5027017;28;20459;-50
2022/07/31 05:53:29;;;;;;;8.83;2.87;;;16.60;99.90;;;;;;5031626;28;20495;-51
2022/07/31 05:55:55;;;;;;;3.40;3.00;;;16.80;99.90;;;;;;5030956;28;20483;-51
2022/07/31 05:58:22;;;;;;;5.43;3.00;;;16.90;99.90;;;;;;5032942;28;20466;-52
2022/07/31 06:00:50;;;;;;;4.37;2.60;;;17.10;99.50;;;;;;5029611;28;20459;-51
2022/07/31 06:03:23;;;;;;;4.00;2.97;;;17.10;79.60;;;;;;5031478;28;20486;-51
2022/07/31 06:05:49;;;;;;;3.10;2.80;;;17.30;20.80;;;;;;5028370;28;20888;-51
2022/07/31 06:08:16;;;;;;;3.93;2.83;;;17.40;23.90;;;;;;5033595;28;20482;-51
2022/07/31 06:10:43;;;;;;;6.10;3.00;;;17.50;28.20;;;;;;5030798;28;20529;-52
2022/07/31 06:13:10;;;;;;;4.30;3.17;;;17.50;28.20;;;;;;5031352;28;20462;-52
2022/07/31 06:15:36;;;;;;;3.20;2.70;;;17.60;26.30;;;;;;5028266;28;20533;-51
2022/07/31 06:18:03;;;;;;;6.03;3.13;;;17.60;23.70;;;;;;5020792;28;20459;-51
2022/07/31 06:20:31;;;;;;;4.20;3.40;;;17.70;29.80;;;;;;5027536;28;20879;-51
2022/07/31 06:22:58;;;;;;;5.10;2.70;;;17.80;39.10;;;;;;5025577;28;20455;-51
2022/07/31 06:25:25;;;;;;;3.40;2.97;;;17.90;39.50;;;;;;5029457;28;21069;-51
2022/07/31 06:27:52;;;;;;;3.33;2.97;;;17.90;38.40;;;;;;5030762;28;20493;-52
2022/07/31 06:30:18;;;;;;;9.00;3.20;;;18.00;42.70;;;;;;5031356;28;20512;-51
2022/07/31 06:32:45;;;;;;;3.20;3.00;;;18.10;48.00;;;;;;5030648;28;20489;-51
2022/07/31 06:35:11;;;;;;;3.43;2.70;;;18.20;49.90;;;;;;5030340;28;20510;-51
2022/07/31 06:37:39;;;;;;;2.87;2.67;;;18.20;52.90;;;;;;5030090;28;20455;-51
2022/07/31 06:40:07;;;;;;;4.23;2.70;;;18.30;56.70;;;;;;5026138;28;21015;-51
2022/07/31 06:42:33;;;;;;;7.83;3.30;;;18.50;59.80;;;;;;5031110;28;20513;-51
2022/07/31 06:45:00;;;;;;;4.37;3.30;;;18.60;62.40;;;;;;5030525;28;21008;-51
2022/07/31 06:47:27;;;;;;;6.83;2.80;;;18.80;60.50;;;;;;5030465;28;20596;-52
2022/07/31 06:49:54;;;;;;;5.07;3.00;;;18.90;62.40;;;;;;5027581;28;20473;-51
2022/07/31 06:52:21;;;;;;;4.90;2.80;;;19.00;62.70;;;;;;5029807;28;20516;-51
2022/07/31 06:54:49;;;;;;;3.23;2.77;;;19.00;63.20;;;;;;5031712;28;20545;-50
2022/07/31 06:57:15;;;;;;;6.00;3.90;;;19.10;59.70;;;;;;5031907;28;20459;-51
2022/07/31 06:59:42;;;;;;;9.30;3.80;;;19.20;64.60;;;;;;5032188;28;20524;-51
2022/07/31 07:02:09;;;;;;;5.13;2.90;;;19.40;71.70;;;;;;5030591;28;20489;-52
2022/07/31 07:04:36;;;;;;;10.03;3.40;;;19.50;73.70;;;;;;5024841;28;20467;-50
2022/07/31 07:07:03;;;;;;;4.47;3.60;;;19.60;72.80;;;;;;5030386;28;20504;-51
2022/07/31 07:09:29;;;;;;;3.43;3.17;;;19.70;73.00;;;;;;5033743;28;20447;-51
2022/07/31 07:11:57;;;;;;;12.20;3.53;;;19.80;72.10;;;;;;5025419;28;20463;-51
2022/07/31 07:14:24;;;;;;;9.37;3.53;;;19.90;79.70;;;;;;5031518;28;20474;-52
2022/07/31 07:16:51;;;;;;;4.67;3.93;;;19.90;75.10;;;;;;5030666;28;20521;-52
2022/07/31 07:19:17;;;;;;;5.00;4.33;;;20.00;77.70;;;;;;5032609;28;20466;-51
2022/07/31 07:21:44;;;;;;;3.83;3.37;;;20.20;77.50;;;;;;5025501;28;21003;-51
2022/07/31 07:24:11;;;;;;;6.23;4.90;;;20.30;83.80;;;;;;5028365;28;20937;-51
2022/07/31 07:26:37;;;;;;;7.20;4.60;;;20.40;90.30;;;;;;5028718;28;20454;-51
2022/07/31 07:29:05;;;;;;;4.57;3.97;;;20.40;90.10;;;;;;5023274;28;20520;-51
2022/07/31 07:31:32;;;;;;;7.53;4.20;;;20.50;91.10;;;;;;5030511;28;20458;-51
2022/07/31 07:33:59;;;;;;;5.77;3.97;;;20.50;95.90;;;;;;5025216;28;20467;-50
2022/07/31 07:36:25;;;;;;;4.37;3.97;;;20.50;95.80;;;;;;5022999;28;20930;-51
2022/07/31 07:38:53;;;;;;;4.40;4.10;;;20.50;92.10;;;;;;5026881;28;20459;-52
2022/07/31 07:41:20;;;;;;;8.17;3.87;;;20.50;92.90;;;;;;5031269;28;20447;-52
2022/07/31 07:43:47;;;;;;;5.40;4.07;;;20.60;95.40;;;;;;5028727;28;20523;-52
2022/07/31 07:46:15;;;;;;;4.40;3.67;;;20.60;94.30;;;;;;5031723;28;20538;-51
2022/07/31 07:48:41;;;;;;;6.73;4.63;;;20.60;91.40;;;;;;5029552;28;20478;-51
2022/07/31 07:51:08;;;;;;;6.73;4.70;;;20.70;92.70;;;;;;5031615;28;20455;-51
2022/07/31 07:53:35;;;;;;;4.57;4.10;;;20.80;94.90;;;;;;5025472;28;20552;-52
2022/07/31 07:56:02;;;;;;;4.53;3.80;;;20.80;97.20;;;;;;5027079;28;21035;-51
2022/07/31 07:58:29;;;;;;;4.20;3.90;;;21.00;95.30;;;;;;5029120;28;20462;-51
2022/07/31 08:00:56;;;;;;;6.00;4.20;;;21.00;97.80;;;;;;5030488;28;20889;-51
2022/07/31 08:03:23;;;;;;;9.40;3.97;;;21.10;98.50;;;;;;5021636;28;20460;-53
2022/07/31 08:05:50;;;;;;;4.10;3.80;;;21.20;99.60;;;;;;5031543;28;20532;-51
2022/07/31 08:08:17;;;;;;;8.23;4.17;;;21.20;99.90;;;;;;5028710;28;20486;-54
2022/07/31 08:10:43;;;;;;;7.40;3.80;;;21.30;99.90;;;;;;5025637;28;20577;-51
2022/07/31 08:13:10;;;;;;;4.70;4.40;;;21.40;99.90;;;;;;5030668;28;20509;-51
2022/07/31 08:15:36;;;;;;;4.43;3.60;;;21.40;99.90;;;;;;5030774;28;21058;-51
2022/07/31 08:18:03;;;;;;;7.20;4.00;;;21.50;99.90;;;;;;5029467;28;20843;-52
2022/07/31 08:20:31;;;;;;;5.43;4.13;;;21.50;99.90;;;;;;5030376;28;20862;-50
2022/07/31 08:22:58;;;;;;;4.13;3.70;;;21.60;99.90;;;;;;5024171;28;20832;-51
2022/07/31 08:25:24;;;;;;;4.53;3.80;;;21.70;99.90;;;;;;5024508;28;20537;-51
2022/07/31 08:27:51;;;;;;;4.30;3.87;;;21.80;99.90;;;;;;5029590;28;20478;-52
2022/07/31 08:30:17;;;;;;;6.50;4.40;;;21.90;99.90;;;;;;5028869;28;20459;-52
2022/07/31 08:32:44;;;;;;;3.87;3.53;;;21.90;99.90;;;;;;5024578;28;20517;-51
2022/07/31 08:35:11;;;;;;;4.43;3.60;;;22.10;99.90;;;;;;5028665;28;20483;-51
2022/07/31 08:37:40;;;;;;;4.87;3.63;;;22.20;99.90;;;;;;5024155;28;20512;-51
2022/07/31 08:40:08;;;;;;;8.10;4.00;;;22.40;99.90;;;;;;5025404;28;20464;-52
2022/07/31 08:42:35;;;;;;;8.77;3.20;;;22.50;99.90;;;;;;5026370;28;20802;-52
2022/07/31 08:45:05;;;;;;;4.17;3.63;;;22.60;99.90;;;;;;5021800;28;20540;-51
2022/07/31 08:47:32;;;;;;;5.57;5.10;;;22.60;99.90;;;;;;5027669;28;20560;-52
2022/07/31 08:49:59;;;;;;;4.13;3.73;;;22.70;99.90;;;;;;5033287;28;20459;-51
2022/07/31 08:52:29;;;;;;;3.70;3.40;;;22.80;99.90;;;;;;5026587;28;21023;-52
2022/07/31 08:54:59;;;;;;;3.20;2.93;;;22.80;99.90;;;;;;5032802;28;20529;-51
2022/07/31 08:57:26;;;;;;;4.37;3.50;;;22.90;99.90;;;;;;5023895;28;20498;-51
2022/07/31 08:59:54;;;;;;;3.63;2.93;;;23.10;99.90;;;;;;5032857;28;20814;-52
2022/07/31 09:02:20;;;;;;;3.73;3.40;;;23.20;99.90;;;;;;5028102;28;20512;-52
2022/07/31 09:04:48;;;;;;;6.10;2.53;;;23.30;99.90;;;;;;5031875;28;20478;-51
2022/07/31 09:07:15;;;;;;;3.10;2.33;;;23.50;99.90;;;;;;5027708;28;20505;-51
2022/07/31 09:09:43;;;;;;;3.53;3.07;;;23.60;99.90;;;;;;5028877;28;20467;-51
2022/07/31 09:12:11;;;;;;;4.47;2.83;;;23.90;99.90;;;;;;5030664;28;20489;-52
2022/07/31 09:14:37;;;;;;;4.50;2.57;;;24.40;99.90;;;;;;5024566;28;20459;-52
2022/07/31 09:17:06;;;;;;;4.73;2.60;;;24.80;99.90;;;;;;5028373;28;20463;-51
2022/07/31 09:19:38;;;;;;;3.00;2.57;;;25.20;99.90;;;;;;5027181;28;20460;-52
2022/07/31 09:22:05;;;;;;;3.63;3.33;;;25.30;99.90;;;;;;5030292;28;20831;-52
2022/07/31 09:24:33;;;;;;;5.23;3.20;;;25.10;99.90;;;;;;5026410;28;20482;-52
2022/07/31 09:27:05;;;;;;;3.00;2.57;;;24.90;99.90;;;;;;5024907;28;20955;-52
2022/07/31 09:29:38;;;;;;;5.53;2.57;;;24.70;99.90;;;;;;5029381;28;20462;-52
2022/07/31 09:32:09;;;;;;;7.73;2.97;;;24.60;99.90;;;;;;5025700;28;20458;-52
2022/07/31 09:34:36;;;;;;;3.83;2.70;;;24.70;99.90;;;;;;5032185;28;20485;-51
2022/07/31 09:37:10;;;;;;;2.43;2.23;;;24.70;99.90;;;;;;5026688;28;20455;-52
2022/07/31 09:39:37;;;;;;;17.10;3.47;;;24.70;99.90;;;;;;5031478;28;20451;-52
2022/07/31 09:42:04;;;;;;;4.93;3.33;;;24.80;99.90;;;;;;5028419;28;20529;-52
2022/07/31 09:44:42;;;;;;;6.23;2.80;;;24.90;99.90;;;;;;5030619;28;20544;-52
2022/07/31 09:47:21;;;;;;;2.70;2.60;;;25.00;99.90;;;;;;5055224;23;20543;-51
2022/07/31 09:49:53;;;;;;;3.23;2.30;;;25.10;99.90;;;;;;5052211;28;20424;-51
2022/07/31 09:52:19;;;;;;;10.90;3.83;;;25.20;99.90;;;;;;5048757;28;20458;-54
2022/07/31 09:54:46;;;;;;;5.97;2.73;;;25.20;99.90;;;;;;5050844;28;20499;-52
2022/07/31 09:57:14;;;;;;;4.83;2.90;;;25.20;99.90;;;;;;5050643;28;20474;-53
2022/07/31 09:59:42;;;;;;;2.57;2.37;;;25.20;99.90;;;;;;5056521;28;20462;-52
2022/07/31 10:02:14;;;;;;;6.40;2.60;;;25.30;99.90;;;;;;5045984;28;20468;-52
2022/07/31 10:04:42;;;;;;;2.57;2.37;;;25.20;99.90;;;;;;5047979;28;20453;-51
2022/07/31 10:07:10;;;;;;;4.30;2.50;;;25.30;99.90;;;;;;5049454;28;20978;-53
2022/07/31 10:09:39;;;;;;;5.37;2.23;;;25.40;99.90;;;;;;5049827;28;20543;-53
2022/07/31 10:12:09;;;;;;;3.60;3.00;;;25.60;99.90;;;;;;5048918;28;20458;-53
2022/07/31 10:14:40;;;;;;;4.97;2.67;;;25.60;99.90;;;;;;5051391;28;20963;-52
2022/07/31 10:17:09;;;;;;;3.20;2.70;;;25.70;99.90;;;;;;5051313;28;20509;-53
2022/07/31 10:19:41;;;;;;;4.30;2.33;;;25.90;99.90;;;;;;5047156;28;20967;-54
2022/07/31 10:22:11;;;;;;;2.23;2.00;;;25.90;99.90;;;;;;5042853;28;20458;-52
2022/07/31 10:24:44;;;;;;;2.90;2.70;;;26.00;99.90;;;;;;5052737;28;21024;-53
2022/07/31 10:27:12;;;;;;;2.60;2.33;;;26.10;99.90;;;;;;5047314;28;20501;-53
2022/07/31 10:29:41;;;;;;;7.87;2.40;;;26.10;99.90;;;;;;5043330;28;20488;-54
2022/07/31 10:32:09;;;;;;;4.27;2.00;;;26.20;99.90;;;;;;5049173;28;20469;-51
2022/07/31 10:34:36;;;;;;;3.50;2.83;;;26.30;99.90;;;;;;5043569;28;20457;-52
2022/07/31 10:37:09;;;;;;;5.40;2.47;;;26.30;99.90;;;;;;5049400;28;20485;-53
2022/07/31 10:39:45;;;;;;;3.03;2.37;;;26.40;99.90;;;;;;5035237;28;20807;-52
2022/07/31 10:42:21;;;;;;;6.37;2.60;;;26.40;99.90;;;;;;5048881;28;20544;-53
2022/07/31 10:44:55;;;;;;;2.80;2.60;;;26.50;99.90;;;;;;5050462;28;20457;-52
2022/07/31 10:47:24;;;;;;;5.10;3.10;;;26.60;99.90;;;;;;5048570;28;20493;-52
2022/07/31 10:49:51;;;;;;;3.33;3.00;;;26.60;99.90;;;;;;5053266;28;20486;-53
2022/07/31 10:52:27;;;;;;;6.17;2.80;;;26.60;99.90;;;;;;5050616;28;20511;-53
2022/07/31 10:54:56;;;;;;;5.33;3.30;;;26.60;99.90;;;;;;5053164;28;20524;-53
2022/07/31 10:57:25;;;;;;;6.40;2.50;;;26.60;99.90;;;;;;5051028;28;20482;-54
2022/07/31 10:59:52;;;;;;;2.87;2.43;;;26.70;99.90;;;;;;5047519;28;20807;-51
2022/07/31 11:02:30;;;;;;;3.73;2.90;;;26.70;99.90;;;;;;5051676;28;20438;-52
2022/07/31 11:05:12;;;;;;;5.57;2.80;;;26.80;99.90;;;;;;5051272;28;20462;-52
2022/07/31 11:07:38;;;;;;;3.20;2.80;;;26.70;99.90;;;;;;5049213;28;20490;-52
2022/07/31 11:10:16;;;;;;;3.07;2.60;;;26.70;99.90;;;;;;5048879;28;20458;-53
2022/07/31 11:12:43;;;;;;;2.83;2.63;;;26.70;99.90;;;;;;5050428;28;20460;-53
2022/07/31 11:15:21;;;;;;;3.37;2.43;;;26.80;99.90;;;;;;5048342;28;20465;-52
2022/07/31 11:17:50;;;;;;;5.53;2.70;;;26.90;99.90;;;;;;5047377;28;20442;-54
2022/07/31 11:20:25;;;;;;;2.80;2.60;;;27.00;99.90;;;;;;5049887;28;20458;-52
2022/07/31 11:22:58;;;;;;;9.40;2.97;;;27.00;99.90;;;;;;5050951;28;20460;-51
2022/07/31 11:25:28;;;;;;;3.13;2.90;;;26.90;99.90;;;;;;5046955;28;21028;-52
2022/07/31 11:27:55;;;;;;;3.00;2.73;;;26.60;99.90;;;;;;5049497;28;20485;-53
2022/07/31 11:30:23;;;;;;;6.33;3.07;;;26.40;99.90;;;;;;5051643;28;20569;-53
2022/07/31 11:32:52;;;;;;;7.03;2.63;;;26.40;99.90;;;;;;5046111;28;20464;-53
2022/07/31 11:35:30;;;;;;;2.50;2.30;;;26.40;99.90;;;;;;5052460;28;20464;-53
2022/07/31 11:37:57;;;;;;;2.70;2.50;;;26.60;99.90;;;;;;5050491;28;20454;-53
2022/07/31 11:40:25;;;;;;;2.93;2.53;;;26.80;99.90;;;;;;5049503;28;20474;-52
2022/07/31 11:42:52;;;;;;;2.43;2.33;;;27.00;99.90;;;;;;5051667;28;20450;-53
2022/07/31 11:45:19;;;;;;;2.40;2.30;;;27.00;99.90;;;;;;5044278;28;20544;-54
2022/07/31 11:47:47;;;;;;;2.93;2.67;;;27.00;99.90;;;;;;5061144;28;20462;-53
2022/07/31 11:50:15;;;;;;;3.40;2.70;;;26.90;99.90;;;;;;5052257;28;20564;-53
2022/07/31 11:52:43;;;;;;;4.80;3.10;;;26.70;99.90;;;;;;5049771;28;20462;-52
2022/07/31 11:55:12;;;;;;;3.93;2.23;;;26.60;99.90;;;;;;5051292;28;20458;-53
2022/07/31 11:57:39;;;;;;;2.20;2.10;;;26.80;99.90;;;;;;5050698;28;20472;-54
2022/07/31 12:00:11;;;;;;;6.17;3.50;;;26.90;99.90;;;;;;5050325;28;20500;-53
2022/07/31 12:02:42;;;;;;;3.50;3.20;;;27.00;99.90;;;;;;5047067;28;20488;-52
2022/07/31 12:05:11;;;;;;;3.27;2.80;;;27.10;99.90;;;;;;5051667;28;20434;-53
2022/07/31 12:07:40;;;;;;;5.00;2.90;;;27.20;99.90;;;;;;5050312;28;20575;-53
2022/07/31 12:10:10;;;;;;;4.60;2.70;;;27.20;99.90;;;;;;5052916;28;20999;-53
2022/07/31 12:12:37;;;;;;;3.77;2.50;;;27.40;99.90;;;;;;5042560;28;20935;-54
2022/07/31 12:15:14;;;;;;;3.10;2.80;;;27.50;99.90;;;;;;5049159;28;20508;-53
2022/07/31 12:17:41;;;;;;;3.53;2.47;;;27.50;99.90;;;;;;5051898;28;20460;-54
2022/07/31 12:20:08;;;;;;;2.60;2.50;;;27.30;99.90;;;;;;5046350;28;20458;-53
2022/07/31 12:22:35;;;;;;;3.20;3.00;;;27.20;99.90;;;;;;5048092;28;20458;-54
2022/07/31 12:25:08;;;;;;;6.00;3.10;;;27.00;99.90;;;;;;5051370;28;20438;-53
2022/07/31 12:27:35;;;;;;;2.80;2.60;;;27.10;99.90;;;;;;5051979;28;20461;-54
2022/07/31 12:30:13;;;;;;;4.80;2.47;;;27.10;99.90;;;;;;5050418;28;20513;-53
2022/07/31 12:32:40;;;;;;;3.93;3.17;;;27.10;99.90;;;;;;5041498;28;20872;-55
2022/07/31 12:35:07;;;;;;;5.43;2.67;;;27.20;99.90;;;;;;5048918;28;20507;-53
2022/07/31 12:37:43;;;;;;;3.53;2.67;;;27.20;99.90;;;;;;5049396;28;21005;-52
2022/07/31 12:40:22;;;;;;;2.60;2.50;;;26.90;99.90;;;;;;5049613;28;20444;-52
2022/07/31 12:42:48;;;;;;;2.33;2.23;;;26.70;99.90;;;;;;5043552;28;20442;-54
2022/07/31 12:45:15;;;;;;;9.33;3.27;;;26.60;99.90;;;;;;5038827;28;20472;-59
2022/07/31 12:47:42;;;;;;;3.27;3.00;;;26.50;99.90;;;;;;5054916;28;20458;-54
2022/07/31 12:50:09;;;;;;;4.03;2.53;;;26.40;99.90;;;;;;5051766;28;20481;-53